createdAt,value
2017-08-03T00:00:18.013Z,21.40
2017-08-03T00:02:45.466Z,18.87
2017-08-03T00:05:12.971Z,17.30
2017-08-03T00:07:40.436Z,19.43
2017-08-03T00:10:07.947Z,19.70
2017-08-03T00:12:36.440Z,20.07
2017-08-03T00:15:04.008Z,22.20
2017-08-03T00:17:31.563Z,20.87
2017-08-03T00:19:59.101Z,20.60
2017-08-03T00:22:26.671Z,22.20
2017-08-03T00:24:54.166Z,22.47
2017-08-03T00:27:21.734Z,21.77
2017-08-03T00:29:49.260Z,21.43
2017-08-03T00:32:17.308Z,20.23
2017-08-03T00:34:45.606Z,23.47
2017-08-03T00:37:13.055Z,22.53
2017-08-03T00:39:40.680Z,20.70
2017-08-03T00:42:08.307Z,23.50
2017-08-03T00:44:35.773Z,21.27
2017-08-03T00:47:03.294Z,22.20
2017-08-03T00:49:30.761Z,23.77
2017-08-03T00:51:59.053Z,21.83
2017-08-03T00:54:26.622Z,20.67
2017-08-03T00:56:54.879Z,21.13
2017-08-03T00:59:22.407Z,21.50
2017-08-03T01:01:49.884Z,21.70
2017-08-03T01:04:17.451Z,22.43
2017-08-03T01:06:45.043Z,19.77
2017-08-03T01:09:12.503Z,22.90
2017-08-03T01:11:40.060Z,20.60
2017-08-03T01:14:07.771Z,22.10
2017-08-03T01:16:35.242Z,21.43
2017-08-03T01:19:03.494Z,21.83
2017-08-03T01:21:31.068Z,24.90
2017-08-03T01:23:58.524Z,27.13
2017-08-03T01:26:26.059Z,24.90
2017-08-03T01:28:53.536Z,25.37
2017-08-03T01:31:21.016Z,22.87
2017-08-03T01:33:48.673Z,24.80
2017-08-03T01:36:16.242Z,24.70
2017-08-03T01:38:43.765Z,23.43
2017-08-03T01:41:11.254Z,23.80
2017-08-03T01:43:38.795Z,24.27
2017-08-03T01:46:06.318Z,25.20
2017-08-03T01:48:33.867Z,23.63
2017-08-03T01:51:02.096Z,21.47
2017-08-03T01:53:29.753Z,21.40
2017-08-03T01:55:58.093Z,22.67
2017-08-03T02:01:02.256Z,23.03
2017-08-03T02:03:29.831Z,23.67
2017-08-03T02:05:57.377Z,21.70
2017-08-03T02:08:24.919Z,21.50
2017-08-03T02:10:52.452Z,19.90
2017-08-03T02:13:20.051Z,20.27
2017-08-03T02:15:47.716Z,18.47
2017-08-03T02:18:15.243Z,20.50
2017-08-03T02:20:42.716Z,18.33
2017-08-03T02:23:10.378Z,19.17
2017-08-03T02:25:37.920Z,19.60
2017-08-03T02:28:05.397Z,21.30
2017-08-03T02:30:32.868Z,22.17
2017-08-03T02:33:00.433Z,19.93
2017-08-03T02:35:27.875Z,18.73
2017-08-03T02:37:55.349Z,17.17
2017-08-03T02:40:22.860Z,17.53
2017-08-03T02:42:50.355Z,17.10
2017-08-03T02:45:17.944Z,17.40
2017-08-03T02:47:45.471Z,15.93
2017-08-03T02:50:13.078Z,17.60
2017-08-03T02:52:40.517Z,15.80
2017-08-03T02:55:08.059Z,15.40
2017-08-03T02:57:35.619Z,15.10
2017-08-03T03:00:03.902Z,15.27
2017-08-03T03:02:31.422Z,16.10
2017-08-03T03:04:58.886Z,17.50
2017-08-03T03:07:26.354Z,18.03
2017-08-03T03:09:53.805Z,17.10
2017-08-03T03:12:21.421Z,16.57
2017-08-03T03:14:48.910Z,17.07
2017-08-03T03:17:16.428Z,19.20
2017-08-03T03:19:43.899Z,15.60
2017-08-03T03:22:11.467Z,17.70
2017-08-03T03:24:39.031Z,18.00
2017-08-03T03:27:06.522Z,16.63
2017-08-03T03:29:34.028Z,17.73
2017-08-03T03:32:01.749Z,17.20
2017-08-03T03:34:29.379Z,16.53
2017-08-03T03:36:56.846Z,16.40
2017-08-03T03:39:24.457Z,17.00
2017-08-03T03:41:51.979Z,16.77
2017-08-03T03:44:19.503Z,18.43
2017-08-03T03:46:46.958Z,15.70
2017-08-03T03:49:14.597Z,15.93
2017-08-03T03:51:42.084Z,16.13
2017-08-03T03:54:09.617Z,17.07
2017-08-03T03:56:37.111Z,16.23
2017-08-03T03:59:04.723Z,15.47
2017-08-03T04:01:32.208Z,15.00
2017-08-03T04:04:00.484Z,17.20
2017-08-03T04:06:28.729Z,16.47
2017-08-03T04:08:56.220Z,16.57
2017-08-03T04:11:23.767Z,16.50
2017-08-03T04:13:51.266Z,16.00
2017-08-03T04:16:18.784Z,15.43
2017-08-03T04:18:46.282Z,15.23
2017-08-03T04:21:13.907Z,15.87
2017-08-03T04:23:41.457Z,14.40
2017-08-03T04:26:08.904Z,13.13
2017-08-03T04:28:36.416Z,14.17
2017-08-03T04:31:03.899Z,15.27
2017-08-03T04:33:31.355Z,15.07
2017-08-03T04:35:58.859Z,17.13
2017-08-03T04:38:27.092Z,13.97
2017-08-03T04:40:55.727Z,14.67
2017-08-03T04:43:23.616Z,14.70
2017-08-03T04:45:51.511Z,15.83
2017-08-03T04:48:19.088Z,13.90
2017-08-03T04:50:46.640Z,15.27
2017-08-03T04:53:14.143Z,14.77
2017-08-03T04:55:41.947Z,12.93
2017-08-03T04:58:09.483Z,11.43
2017-08-03T05:00:37.402Z,10.27
2017-08-03T05:03:04.896Z,10.40
2017-08-03T05:05:33.103Z,10.27
2017-08-03T05:08:00.645Z,9.70
2017-08-03T05:10:28.225Z,11.33
2017-08-03T05:12:55.723Z,10.60
2017-08-03T05:15:23.344Z,10.60
2017-08-03T05:17:51.047Z,10.13
2017-08-03T05:20:18.544Z,11.50
2017-08-03T05:22:46.059Z,10.33
2017-08-03T05:25:13.806Z,11.30
2017-08-03T05:27:42.376Z,10.20
2017-08-03T05:30:09.906Z,10.03
2017-08-03T05:32:37.387Z,10.37
2017-08-03T05:35:04.895Z,10.77
2017-08-03T05:37:32.559Z,11.20
2017-08-03T05:40:00.219Z,11.37
2017-08-03T05:42:28.072Z,11.50
2017-08-03T05:44:55.710Z,13.30
2017-08-03T05:47:23.361Z,12.67
2017-08-03T05:49:50.816Z,11.40
2017-08-03T05:52:18.400Z,12.50
2017-08-03T05:54:45.952Z,11.53
2017-08-03T05:57:13.470Z,12.00
2017-08-03T05:59:40.951Z,10.50
2017-08-03T06:02:08.415Z,9.97
2017-08-03T06:04:35.976Z,10.80
2017-08-03T06:07:03.573Z,10.90
2017-08-03T06:09:31.075Z,10.60
2017-08-03T06:11:58.610Z,10.37
2017-08-03T06:14:26.113Z,10.70
2017-08-03T06:16:53.644Z,10.13
2017-08-03T06:19:21.912Z,10.13
2017-08-03T06:21:49.411Z,10.77
2017-08-03T06:24:16.942Z,9.37
2017-08-03T06:26:45.210Z,10.57
2017-08-03T06:29:12.829Z,9.80
2017-08-03T06:31:40.297Z,11.10
2017-08-03T06:34:07.796Z,11.80
2017-08-03T06:36:35.269Z,9.80
2017-08-03T06:39:02.779Z,9.70
2017-08-03T06:41:31.734Z,9.63
2017-08-03T06:43:59.274Z,9.70
2017-08-03T06:46:26.846Z,9.17
2017-08-03T06:48:54.465Z,11.00
2017-08-03T06:51:22.044Z,9.80
2017-08-03T06:53:49.627Z,11.27
2017-08-03T06:56:17.224Z,10.70
2017-08-03T06:58:44.738Z,11.50
2017-08-03T07:01:12.406Z,10.87
2017-08-03T07:03:39.934Z,11.13
2017-08-03T07:06:08.964Z,12.40
2017-08-03T07:08:36.514Z,11.50
2017-08-03T07:11:04.228Z,11.70
2017-08-03T07:13:31.725Z,12.17
2017-08-03T07:15:59.223Z,11.07
2017-08-03T07:18:26.797Z,12.90
2017-08-03T07:20:54.294Z,12.73
2017-08-03T07:23:21.837Z,11.10
2017-08-03T07:25:49.368Z,11.47
2017-08-03T07:28:17.769Z,10.90
2017-08-03T07:30:45.644Z,10.57
2017-08-03T07:33:16.139Z,9.57
2017-08-03T07:35:43.804Z,10.27
2017-08-03T07:38:11.791Z,10.10
2017-08-03T07:40:39.264Z,9.57
2017-08-03T07:43:07.185Z,10.10
2017-08-03T07:45:35.498Z,7.70
2017-08-03T07:48:03.946Z,8.50
2017-08-03T07:50:31.433Z,7.70
2017-08-03T07:53:00.755Z,7.77
2017-08-03T07:55:28.425Z,7.27
2017-08-03T07:57:55.983Z,7.27
2017-08-03T08:00:24.780Z,7.30
2017-08-03T08:02:53.146Z,7.60
2017-08-03T08:05:20.602Z,6.90
2017-08-03T08:07:48.449Z,6.97
2017-08-03T08:10:15.931Z,7.33
2017-08-03T08:12:43.576Z,7.63
2017-08-03T08:15:12.265Z,7.13
2017-08-03T08:17:40.857Z,6.63
2017-08-03T08:20:08.382Z,7.07
2017-08-03T08:22:35.982Z,6.63
2017-08-03T08:25:05.674Z,7.17
2017-08-03T08:27:33.250Z,7.60
2017-08-03T08:30:01.527Z,6.63
2017-08-03T08:32:29.085Z,6.20
2017-08-03T08:35:00.375Z,7.00
2017-08-03T08:37:28.007Z,6.93
2017-08-03T08:39:55.529Z,7.10
2017-08-03T08:42:23.094Z,6.70
2017-08-03T08:44:50.664Z,6.50
2017-08-03T08:47:19.007Z,5.93
2017-08-03T08:49:46.482Z,5.53
2017-08-03T08:52:14.082Z,5.53
2017-08-03T08:54:41.918Z,4.40
2017-08-03T08:57:09.695Z,4.70
2017-08-03T08:59:37.227Z,4.60
2017-08-03T09:02:04.742Z,5.00
2017-08-03T09:04:32.248Z,4.70
2017-08-03T09:06:59.871Z,4.83
2017-08-03T09:09:27.615Z,4.90
2017-08-03T09:11:55.117Z,4.67
2017-08-03T09:14:22.897Z,5.23
2017-08-03T09:16:50.703Z,4.17
2017-08-03T09:19:18.227Z,4.40
2017-08-03T09:21:46.546Z,4.30
2017-08-03T09:24:14.187Z,4.23
2017-08-03T09:26:41.796Z,4.90
2017-08-03T09:29:09.389Z,5.00
2017-08-03T09:31:36.850Z,4.20
2017-08-03T09:34:04.463Z,3.70
2017-08-03T09:36:31.970Z,4.47
2017-08-03T09:38:59.503Z,4.20
2017-08-03T09:41:27.300Z,4.60
2017-08-03T09:43:54.890Z,4.30
2017-08-03T09:46:22.388Z,4.10
2017-08-03T09:48:49.967Z,3.60
2017-08-03T09:51:18.571Z,4.37
2017-08-03T09:53:47.759Z,4.07
2017-08-03T09:56:15.313Z,4.13
2017-08-03T09:58:43.711Z,3.77
2017-08-03T10:01:17.804Z,3.50
2017-08-03T10:03:45.526Z,4.13
2017-08-03T10:06:13.394Z,4.00
2017-08-03T10:08:41.856Z,3.70
2017-08-03T10:11:10.284Z,3.30
2017-08-03T10:13:37.904Z,4.00
2017-08-03T10:16:05.546Z,3.43
2017-08-03T10:18:33.661Z,4.10
2017-08-03T10:21:02.092Z,3.50
2017-08-03T10:23:29.732Z,4.40
2017-08-03T10:25:57.389Z,4.10
2017-08-03T10:28:24.978Z,3.90
2017-08-03T10:30:52.622Z,4.10
2017-08-03T10:33:20.296Z,3.70
2017-08-03T10:35:48.149Z,3.77
2017-08-03T10:38:15.702Z,4.20
2017-08-03T10:40:43.602Z,3.77
2017-08-03T10:43:11.210Z,3.40
2017-08-03T10:45:38.865Z,4.27
2017-08-03T10:48:06.553Z,4.30
2017-08-03T10:50:34.016Z,3.37
2017-08-03T10:53:01.668Z,3.70
2017-08-03T10:55:29.400Z,4.73
2017-08-03T10:57:57.282Z,3.83
2017-08-03T11:00:26.522Z,4.10
2017-08-03T11:02:54.316Z,4.57
2017-08-03T11:05:22.089Z,4.33
2017-08-03T11:07:50.754Z,4.47
2017-08-03T11:10:19.119Z,3.90
2017-08-03T11:12:46.751Z,3.90
2017-08-03T11:15:14.296Z,4.00
2017-08-03T11:17:42.304Z,4.50
2017-08-03T11:20:11.097Z,5.10
2017-08-03T11:22:38.697Z,4.50
2017-08-03T11:25:06.293Z,4.30
2017-08-03T11:27:33.820Z,4.63
2017-08-03T11:30:01.381Z,4.97
2017-08-03T11:32:30.777Z,4.40
2017-08-03T11:34:58.426Z,4.47
2017-08-03T11:37:26.905Z,4.50
2017-08-03T11:39:54.420Z,4.20
2017-08-03T11:42:21.989Z,3.80
2017-08-03T11:47:30.938Z,3.37
2017-08-03T11:50:00.951Z,3.60
2017-08-03T11:52:29.562Z,3.73
2017-08-03T11:54:58.068Z,3.53
2017-08-03T11:57:27.257Z,3.40
2017-08-03T11:59:54.722Z,3.37
2017-08-03T12:02:22.493Z,3.07
2017-08-03T12:04:50.138Z,2.80
2017-08-03T12:07:18.515Z,3.10
2017-08-03T12:09:49.067Z,3.80
2017-08-03T12:12:17.798Z,3.53
2017-08-03T12:14:46.544Z,4.83
2017-08-03T12:17:19.245Z,4.07
2017-08-03T12:19:46.790Z,3.40
2017-08-03T12:22:14.457Z,3.93
2017-08-03T12:24:43.448Z,2.60
2017-08-03T12:27:11.203Z,3.63
2017-08-03T12:29:38.814Z,3.13
2017-08-03T12:32:06.316Z,3.00
2017-08-03T12:34:34.296Z,3.37
2017-08-03T12:37:01.940Z,3.10
2017-08-03T12:39:29.579Z,3.03
2017-08-03T12:41:57.510Z,3.27
2017-08-03T12:44:25.913Z,3.43
2017-08-03T12:46:53.611Z,3.03
2017-08-03T12:49:21.249Z,3.10
2017-08-03T12:51:49.643Z,3.40
2017-08-03T12:54:17.733Z,3.43
2017-08-03T12:56:46.577Z,4.07
2017-08-03T12:59:14.125Z,2.83
2017-08-03T13:01:42.165Z,3.40
2017-08-03T13:04:10.988Z,3.23
2017-08-03T13:06:38.616Z,2.93
2017-08-03T13:09:06.202Z,2.53
2017-08-03T13:11:36.717Z,2.70
2017-08-03T13:14:05.874Z,2.67
2017-08-03T13:16:35.431Z,2.70
2017-08-03T13:19:04.050Z,2.53
2017-08-03T13:21:36.289Z,2.70
2017-08-03T13:24:03.874Z,2.67
2017-08-03T13:26:31.719Z,2.57
2017-08-03T13:29:00.956Z,3.10
2017-08-03T13:31:33.213Z,2.50
2017-08-03T13:34:00.944Z,2.40
2017-08-03T13:36:28.654Z,2.40
2017-08-03T13:38:56.223Z,2.50
2017-08-03T13:41:25.412Z,2.70
2017-08-03T13:43:58.947Z,2.83
2017-08-03T13:46:27.396Z,2.30
2017-08-03T13:48:55.780Z,2.50
2017-08-03T13:51:23.546Z,2.63
2017-08-03T13:56:31.992Z,2.80
2017-08-03T13:59:00.436Z,2.80
2017-08-03T14:01:28.852Z,2.30
2017-08-03T14:03:58.381Z,3.30
2017-08-03T14:06:26.164Z,2.50
2017-08-03T14:08:54.081Z,2.17
2017-08-03T14:11:22.298Z,2.60
2017-08-03T14:13:50.015Z,2.30
2017-08-03T14:16:17.608Z,3.10
2017-08-03T14:18:45.370Z,2.93
2017-08-03T14:21:13.419Z,2.90
2017-08-03T14:23:42.038Z,3.03
2017-08-03T14:28:43.989Z,3.00
2017-08-03T14:31:11.487Z,2.50
2017-08-03T14:33:39.221Z,2.87
2017-08-03T14:36:11.339Z,2.57
2017-08-03T14:38:40.211Z,2.50
2017-08-03T14:41:07.811Z,2.60
2017-08-03T14:43:35.373Z,2.53
2017-08-03T14:46:04.572Z,2.80
2017-08-03T14:48:32.106Z,2.50
2017-08-03T14:50:59.717Z,2.50
2017-08-03T14:53:32.004Z,2.63
2017-08-03T14:56:02.364Z,2.87
2017-08-03T14:58:32.521Z,2.40
2017-08-03T15:01:02.013Z,2.50
2017-08-03T15:03:30.489Z,2.50
2017-08-03T15:05:58.251Z,3.47
2017-08-03T15:08:25.793Z,2.30
2017-08-03T15:10:53.548Z,2.70
2017-08-03T15:13:22.346Z,2.50
2017-08-03T15:15:56.955Z,3.00
2017-08-03T15:18:25.301Z,2.70
2017-08-03T15:20:53.005Z,3.43
2017-08-03T15:23:20.637Z,3.30
2017-08-03T15:25:49.082Z,2.77
2017-08-03T15:28:16.958Z,3.07
2017-08-03T15:30:45.247Z,3.67
2017-08-03T15:33:12.787Z,3.27
2017-08-03T15:35:40.229Z,2.70
2017-08-03T15:38:07.998Z,2.90
2017-08-03T15:40:35.785Z,3.10
2017-08-03T15:43:03.504Z,2.97
2017-08-03T15:45:31.117Z,2.90
2017-08-03T15:50:38.781Z,3.67
2017-08-03T15:53:07.077Z,3.93
2017-08-03T15:55:34.563Z,3.40
2017-08-03T15:58:03.251Z,3.73
2017-08-03T16:00:30.896Z,3.80
2017-08-03T16:03:00.263Z,3.70
2017-08-03T16:05:27.956Z,3.80
2017-08-03T16:07:55.508Z,3.80
2017-08-03T16:10:23.529Z,3.63
2017-08-03T16:12:51.159Z,3.70
2017-08-03T16:15:18.771Z,5.03
2017-08-03T16:17:46.495Z,4.00
2017-08-03T16:20:14.824Z,3.47
2017-08-03T16:22:42.663Z,3.37
2017-08-03T16:25:10.335Z,3.50
2017-08-03T16:27:37.965Z,3.60
2017-08-03T16:30:06.034Z,3.70
2017-08-03T16:32:33.631Z,3.33
2017-08-03T16:35:01.318Z,3.53
2017-08-03T16:37:29.236Z,2.93
2017-08-03T16:39:56.754Z,3.50
2017-08-03T16:42:24.840Z,3.83
2017-08-03T16:44:53.129Z,3.20
2017-08-03T16:47:20.743Z,3.50
2017-08-03T16:49:48.523Z,3.10
2017-08-03T16:52:16.155Z,3.47
2017-08-03T16:54:44.460Z,3.37
2017-08-03T16:57:11.916Z,3.87
2017-08-03T16:59:39.485Z,3.10
2017-08-03T17:02:07.215Z,3.03
2017-08-03T17:04:35.559Z,3.33
2017-08-03T17:07:03.034Z,3.00
2017-08-03T17:09:30.801Z,3.27
2017-08-03T17:12:00.181Z,2.93
2017-08-03T17:14:27.853Z,3.20
2017-08-03T17:16:55.434Z,2.57
2017-08-03T17:19:23.877Z,2.97
2017-08-03T17:21:51.517Z,2.80
2017-08-03T17:24:19.099Z,3.90
2017-08-03T17:26:47.424Z,3.60
2017-08-03T17:29:15.346Z,2.90
2017-08-03T17:31:42.886Z,2.87
2017-08-03T17:34:10.733Z,3.23
2017-08-03T17:36:38.373Z,2.97
2017-08-03T17:39:06.580Z,3.30
2017-08-03T17:41:34.833Z,3.40
2017-08-03T17:44:02.489Z,3.60
2017-08-03T17:46:30.582Z,3.03
2017-08-03T17:48:59.096Z,2.93
2017-08-03T17:51:26.983Z,2.80
2017-08-03T17:53:55.191Z,3.33
2017-08-03T17:56:22.892Z,3.17
2017-08-03T17:58:51.358Z,4.10
2017-08-03T18:01:20.580Z,2.97
2017-08-03T18:03:49.310Z,3.60
2017-08-03T18:06:18.342Z,3.20
2017-08-03T18:08:46.376Z,3.07
2017-08-03T18:11:15.064Z,4.37
2017-08-03T18:13:43.533Z,3.60
2017-08-03T18:16:12.027Z,3.60
2017-08-03T18:18:49.251Z,5.70
2017-08-03T18:21:17.559Z,3.50
2017-08-03T18:23:46.389Z,3.37
2017-08-03T18:26:14.339Z,3.03
2017-08-03T18:28:44.307Z,4.30
2017-08-03T18:31:13.542Z,3.33
2017-08-03T18:33:44.534Z,3.47
2017-08-03T18:36:12.434Z,3.10
2017-08-03T18:38:40.115Z,3.00
2017-08-03T18:41:09.957Z,3.50
2017-08-03T18:43:37.645Z,3.13
2017-08-03T18:46:05.711Z,3.63
2017-08-03T18:48:33.752Z,4.07
2017-08-03T18:51:04.422Z,4.40
2017-08-03T18:53:34.485Z,3.33
2017-08-03T18:56:09.519Z,3.60
2017-08-03T18:58:39.661Z,3.30
2017-08-03T19:01:17.379Z,4.30
2017-08-03T19:03:45.803Z,3.87
2017-08-03T19:06:13.370Z,3.83
2017-08-03T19:08:43.976Z,3.43
2017-08-03T19:11:12.349Z,4.23
2017-08-03T19:13:41.583Z,4.50
2017-08-03T19:16:09.982Z,3.70
2017-08-03T19:18:37.629Z,4.30
2017-08-03T19:21:06.232Z,5.00
2017-08-03T19:23:33.875Z,4.33
2017-08-03T19:26:02.023Z,4.60
2017-08-03T19:28:29.681Z,3.40
2017-08-03T19:30:57.261Z,3.90
2017-08-03T19:33:36.264Z,3.60
2017-08-03T19:36:04.585Z,3.60
2017-08-03T19:38:33.523Z,4.73
2017-08-03T19:41:01.562Z,5.10
2017-08-03T19:43:29.216Z,3.93
2017-08-03T19:45:57.044Z,3.40
2017-08-03T19:48:24.859Z,3.63
2017-08-03T19:50:52.542Z,4.63
2017-08-03T19:53:20.002Z,5.20
2017-08-03T19:55:52.792Z,5.00
2017-08-03T19:58:20.626Z,5.73
2017-08-03T20:00:48.164Z,4.73
2017-08-03T20:03:15.732Z,3.63
2017-08-03T20:05:43.311Z,6.00
2017-08-03T20:08:10.994Z,4.67
2017-08-03T20:10:43.746Z,4.90
2017-08-03T20:13:18.251Z,4.63
2017-08-03T20:15:46.796Z,4.33
2017-08-03T20:18:14.373Z,3.80
2017-08-03T20:20:42.138Z,3.93
2017-08-03T20:23:10.229Z,4.03
2017-08-03T20:25:37.869Z,4.37
2017-08-03T20:28:07.157Z,4.90
2017-08-03T20:30:34.931Z,3.90
2017-08-03T20:33:04.238Z,3.90
2017-08-03T20:35:31.886Z,4.43
2017-08-03T20:37:59.669Z,4.60
2017-08-03T20:40:28.835Z,4.93
2017-08-03T20:42:57.650Z,4.80
2017-08-03T20:45:26.375Z,3.77
2017-08-03T20:47:53.982Z,5.03
2017-08-03T20:50:21.702Z,3.93
2017-08-03T20:52:51.497Z,4.50
2017-08-03T20:55:20.595Z,4.07
2017-08-03T20:57:48.837Z,4.60
2017-08-03T21:00:16.477Z,4.53
2017-08-03T21:02:45.726Z,3.90
2017-08-03T21:05:13.395Z,4.13
2017-08-03T21:07:41.678Z,4.03
2017-08-03T21:10:09.359Z,5.20
2017-08-03T21:12:37.297Z,4.10
2017-08-03T21:15:04.843Z,4.47
2017-08-03T21:17:32.519Z,4.50
2017-08-03T21:20:00.028Z,3.87
2017-08-03T21:22:27.781Z,4.10
2017-08-03T21:24:57.522Z,4.17
2017-08-03T21:27:26.145Z,4.10
2017-08-03T21:29:53.766Z,4.10
2017-08-03T21:32:21.269Z,4.00
2017-08-03T21:34:49.571Z,3.90
2017-08-03T21:37:17.153Z,3.87
2017-08-03T21:39:44.769Z,4.10
2017-08-03T21:42:13.056Z,4.63
2017-08-03T21:44:40.641Z,4.30
2017-08-03T21:47:10.180Z,3.40
2017-08-03T21:49:37.707Z,3.33
2017-08-03T21:52:05.331Z,3.23
2017-08-03T21:54:32.964Z,3.33
2017-08-03T21:57:00.474Z,3.67
2017-08-03T21:59:28.201Z,3.73
2017-08-03T22:01:55.805Z,3.93
2017-08-03T22:04:23.471Z,3.70
2017-08-03T22:06:51.140Z,3.50
2017-08-03T22:09:20.138Z,3.50
2017-08-03T22:11:47.683Z,3.50
2017-08-03T22:14:15.506Z,3.73
2017-08-03T22:16:43.114Z,3.20
2017-08-03T22:19:10.685Z,3.33
2017-08-03T22:21:38.220Z,3.07
2017-08-03T22:24:06.979Z,2.80
2017-08-03T22:26:34.768Z,3.37
2017-08-03T22:29:02.292Z,2.47
2017-08-03T22:31:29.995Z,2.80
2017-08-03T22:33:58.662Z,3.50
2017-08-03T22:36:27.347Z,2.80
2017-08-03T22:38:54.919Z,2.60
2017-08-03T22:41:22.471Z,2.80
2017-08-03T22:43:50.123Z,3.77
2017-08-03T22:46:18.454Z,3.83
2017-08-03T22:48:46.017Z,3.37
2017-08-03T22:51:13.672Z,2.73
2017-08-03T22:53:41.223Z,3.30
2017-08-03T22:56:08.829Z,2.80
2017-08-03T22:58:39.271Z,3.20
2017-08-03T23:01:06.866Z,2.20
2017-08-03T23:03:34.345Z,2.33
2017-08-03T23:06:03.220Z,2.70
2017-08-03T23:08:30.838Z,3.50
2017-08-03T23:10:58.343Z,4.10
2017-08-03T23:13:29.709Z,2.50
2017-08-03T23:15:58.136Z,2.50
2017-08-03T23:18:25.760Z,2.80
2017-08-03T23:20:53.241Z,3.03
2017-08-03T23:23:20.781Z,2.80
2017-08-03T23:25:48.372Z,3.03
2017-08-03T23:28:15.963Z,2.60
2017-08-03T23:30:43.640Z,3.03
2017-08-03T23:33:11.701Z,2.87
2017-08-03T23:35:39.390Z,2.90
2017-08-03T23:38:06.963Z,3.33
2017-08-03T23:40:35.483Z,2.53
2017-08-03T23:43:03.106Z,2.77
2017-08-03T23:45:31.397Z,3.43
2017-08-03T23:47:59.001Z,2.80
2017-08-03T23:50:27.068Z,2.40
2017-08-03T23:52:54.636Z,3.00
2017-08-03T23:55:22.188Z,2.20
2017-08-03T23:57:49.695Z,2.50
